createdAt,value
2023-04-25T00:00:26.309Z,58.05
2023-04-25T00:03:15.124Z,57.39
2023-04-25T00:05:43.178Z,59.26
2023-04-25T00:08:11.102Z,60.68
2023-04-25T00:10:39.009Z,61.93
2023-04-25T00:13:07.351Z,63.11
2023-04-25T00:15:37.091Z,59.77
2023-04-25T00:18:05.070Z,56.95
2023-04-25T00:20:32.882Z,58.32
2023-04-25T00:23:00.755Z,59.96
2023-04-25T00:25:28.614Z,61.31
2023-04-25T00:27:56.443Z,62.49
2023-04-25T00:30:24.337Z,62.96
2023-04-25T00:32:52.177Z,58.97
2023-04-25T00:35:20.073Z,57.10
2023-04-25T00:37:47.858Z,58.81
2023-04-25T00:40:15.649Z,60.57
2023-04-25T00:42:43.558Z,62.11
2023-04-25T00:45:14.772Z,62.37
2023-04-25T00:47:43.485Z,58.45
2023-04-25T00:50:13.045Z,56.93
2023-04-25T00:52:44.743Z,58.86
2023-04-25T00:55:13.642Z,60.71
2023-04-25T00:57:41.713Z,61.69
2023-04-25T01:00:12.162Z,63.05
2023-04-25T01:02:41.640Z,61.64
2023-04-25T01:05:10.068Z,57.76
2023-04-25T01:07:38.129Z,57.85
2023-04-25T01:10:07.571Z,59.62
2023-04-25T01:12:36.298Z,60.93
2023-04-25T01:15:04.729Z,61.79
2023-04-25T01:17:33.247Z,63.25
2023-04-25T01:20:04.745Z,60.85
2023-04-25T01:22:33.586Z,56.76
2023-04-25T01:25:01.829Z,57.32
2023-04-25T01:27:30.918Z,59.27
2023-04-25T01:29:59.195Z,60.71
2023-04-25T01:32:27.743Z,61.96
2023-04-25T01:34:55.554Z,63.42
2023-04-25T01:37:23.615Z,59.98
2023-04-25T01:39:51.377Z,56.28
2023-04-25T01:42:19.415Z,57.38
2023-04-25T01:44:47.249Z,59.11
2023-04-25T01:47:15.115Z,60.78
2023-04-25T01:49:42.917Z,61.96
2023-04-25T01:52:10.789Z,63.28
2023-04-25T01:54:38.598Z,60.05
2023-04-25T01:57:06.393Z,56.25
2023-04-25T01:59:34.209Z,57.21
2023-04-25T02:02:04.869Z,59.04
2023-04-25T02:04:33.320Z,60.54
2023-04-25T02:07:01.352Z,61.85
2023-04-25T02:09:29.092Z,63.23
2023-04-25T02:11:56.873Z,60.78
2023-04-25T02:14:24.837Z,56.56
2023-04-25T02:16:53.445Z,57.27
2023-04-25T02:19:21.351Z,59.11
2023-04-25T02:21:49.185Z,60.71
2023-04-25T02:24:17.140Z,61.94
2023-04-25T02:26:45.468Z,63.45
2023-04-25T02:29:13.974Z,60.46
2023-04-25T02:31:41.907Z,56.23
2023-04-25T02:34:09.830Z,57.06
2023-04-25T02:36:37.684Z,58.92
2023-04-25T02:39:06.088Z,60.52
2023-04-25T02:41:33.992Z,61.57
2023-04-25T02:44:01.837Z,63.21
2023-04-25T02:46:38.861Z,60.74
2023-04-25T02:49:08.144Z,56.63
2023-04-25T02:51:36.244Z,57.54
2023-04-25T02:54:04.450Z,59.51
2023-04-25T02:56:32.257Z,61.08
2023-04-25T02:59:00.434Z,62.28
2023-04-25T03:01:28.214Z,63.71
2023-04-25T03:03:56.280Z,60.84
2023-04-25T03:06:24.145Z,56.92
2023-04-25T03:08:51.901Z,57.76
2023-04-25T03:11:21.281Z,59.67
2023-04-25T03:13:49.422Z,61.32
2023-04-25T03:16:17.648Z,63.22
2023-04-25T03:18:45.828Z,61.64
2023-04-25T03:21:13.555Z,57.59
2023-04-25T03:23:41.371Z,57.94
2023-04-25T03:26:09.248Z,59.97
2023-04-25T03:28:37.056Z,61.60
2023-04-25T03:31:04.942Z,63.41
2023-04-25T03:33:33.081Z,61.09
2023-04-25T03:36:00.944Z,57.32
2023-04-25T03:38:28.757Z,57.84
2023-04-25T03:40:57.607Z,59.88
2023-04-25T03:43:25.387Z,61.38
2023-04-25T03:45:53.302Z,62.54
2023-04-25T03:48:25.988Z,63.81
2023-04-25T03:50:55.704Z,60.45
2023-04-25T03:53:42.222Z,56.69
2023-04-25T03:56:10.621Z,58.32
2023-04-25T03:58:38.544Z,60.33
2023-04-25T04:01:08.915Z,62.07
2023-04-25T04:03:38.117Z,63.77
2023-04-25T04:06:07.772Z,61.07
2023-04-25T04:08:35.689Z,57.25
2023-04-25T04:11:03.989Z,58.39
2023-04-25T04:13:32.010Z,60.99
2023-04-25T04:16:00.100Z,62.43
2023-04-25T04:18:28.117Z,63.08
2023-04-25T04:20:56.064Z,59.79
2023-04-25T04:23:24.081Z,56.41
2023-04-25T04:25:51.875Z,57.67
2023-04-25T04:28:19.707Z,59.45
2023-04-25T04:30:47.547Z,60.93
2023-04-25T04:33:20.085Z,62.30
2023-04-25T04:35:48.206Z,62.58
2023-04-25T04:38:16.593Z,58.62
2023-04-25T04:40:44.433Z,56.84
2023-04-25T04:43:12.495Z,58.78
2023-04-25T04:45:41.308Z,60.52
2023-04-25T04:48:09.816Z,61.73
2023-04-25T04:50:37.776Z,62.99
2023-04-25T04:53:05.744Z,59.90
2023-04-25T04:55:33.607Z,56.58
2023-04-25T04:58:01.384Z,57.83
2023-04-25T05:00:30.578Z,59.79
2023-04-25T05:02:58.773Z,61.49
2023-04-25T05:05:26.859Z,62.57
2023-04-25T05:07:54.721Z,60.67
2023-04-25T05:10:22.572Z,56.57
2023-04-25T05:12:50.409Z,57.67
2023-04-25T05:15:18.346Z,59.43
2023-04-25T05:17:46.268Z,60.65
2023-04-25T05:20:15.261Z,61.88
2023-04-25T05:22:43.088Z,63.31
2023-04-25T05:25:11.379Z,58.49
2023-04-25T05:27:39.191Z,56.98
2023-04-25T05:30:08.190Z,58.84
2023-04-25T05:32:36.885Z,60.19
2023-04-25T05:35:05.206Z,61.69
2023-04-25T05:37:33.949Z,62.64
2023-04-25T05:40:01.937Z,58.64
2023-04-25T05:42:29.722Z,56.91
2023-04-25T05:44:57.607Z,58.82
2023-04-25T05:47:25.457Z,60.73
2023-04-25T05:49:54.014Z,61.55
2023-04-25T05:52:22.092Z,62.65
2023-04-25T05:54:49.909Z,58.88
2023-04-25T05:57:23.422Z,56.98
2023-04-25T05:59:51.866Z,58.43
2023-04-25T06:02:22.107Z,60.37
2023-04-25T06:04:53.323Z,61.41
2023-04-25T06:07:21.515Z,62.24
2023-04-25T06:09:50.433Z,62.14
2023-04-25T06:12:18.260Z,58.27
2023-04-25T06:14:46.320Z,55.97
2023-04-25T06:17:14.125Z,58.04
2023-04-25T06:19:41.904Z,59.33
2023-04-25T06:22:09.723Z,60.68
2023-04-25T06:24:37.548Z,61.02
2023-04-25T06:27:05.432Z,61.96
2023-04-25T06:29:33.311Z,62.35
2023-04-25T06:32:01.104Z,62.61
2023-04-25T06:34:28.943Z,58.26
2023-04-25T06:36:56.798Z,57.06
2023-04-25T06:39:25.853Z,58.95
2023-04-25T06:41:54.488Z,59.84
2023-04-25T06:44:24.260Z,60.37
2023-04-25T06:46:52.139Z,61.24
2023-04-25T06:49:19.957Z,61.22
2023-04-25T06:51:47.807Z,61.82
2023-04-25T06:54:15.904Z,62.39
2023-04-25T06:56:43.874Z,61.49
2023-04-25T06:59:11.740Z,56.30
2023-04-25T07:01:39.477Z,57.27
2023-04-25T07:04:07.779Z,58.85
2023-04-25T07:06:39.163Z,59.82
2023-04-25T07:09:07.329Z,60.54
2023-04-25T07:11:35.305Z,61.35
2023-04-25T07:14:04.041Z,61.29
2023-04-25T07:16:31.826Z,61.35
2023-04-25T07:19:00.663Z,61.51
2023-04-25T07:21:28.578Z,61.85
2023-04-25T07:23:56.457Z,62.32
2023-04-25T07:26:24.359Z,63.10
2023-04-25T07:28:52.785Z,58.22
2023-04-25T07:31:20.876Z,55.93
2023-04-25T07:33:48.945Z,56.95
2023-04-25T07:36:16.838Z,58.15
2023-04-25T07:38:44.657Z,58.95
2023-04-25T07:41:12.678Z,59.17
2023-04-25T07:43:40.414Z,59.92
2023-04-25T07:46:08.296Z,60.22
2023-04-25T07:48:36.224Z,60.68
2023-04-25T07:51:05.875Z,60.57
2023-04-25T07:53:36.928Z,60.41
2023-04-25T07:56:05.099Z,60.54
2023-04-25T07:58:32.999Z,60.83
2023-04-25T08:01:00.862Z,61.00
2023-04-25T08:03:28.789Z,61.54
2023-04-25T08:05:56.920Z,62.02
2023-04-25T08:08:24.941Z,61.65
2023-04-25T08:10:52.684Z,61.75
2023-04-25T08:13:21.088Z,61.45
2023-04-25T08:15:48.981Z,61.74
2023-04-25T08:18:17.730Z,61.46
2023-04-25T08:20:46.196Z,61.65
2023-04-25T08:23:14.486Z,62.89
2023-04-25T08:25:42.364Z,58.63
2023-04-25T08:28:10.544Z,55.55
2023-04-25T08:30:38.305Z,56.75
2023-04-25T08:33:06.320Z,57.02
2023-04-25T08:35:34.813Z,58.00
2023-04-25T08:38:02.960Z,58.22
2023-04-25T08:40:33.473Z,59.29
2023-04-25T08:43:02.008Z,59.02
2023-04-25T08:45:32.662Z,58.34
2023-04-25T08:48:02.076Z,58.70
2023-04-25T08:50:31.337Z,59.16
2023-04-25T08:53:02.692Z,59.43
2023-04-25T08:55:31.198Z,60.12
2023-04-25T08:57:59.783Z,59.74
2023-04-25T09:00:28.122Z,59.42
2023-04-25T09:02:57.888Z,58.88
2023-04-25T09:05:26.250Z,59.00
2023-04-25T09:07:54.180Z,58.69
2023-04-25T09:10:22.231Z,58.37
2023-04-25T09:13:27.934Z,58.49
2023-04-25T09:15:58.533Z,58.79
2023-04-25T09:18:30.409Z,58.43
2023-04-25T09:21:15.036Z,58.39
2023-04-25T09:23:47.721Z,58.49
2023-04-25T09:26:18.302Z,57.54
2023-04-25T09:28:49.042Z,57.55
2023-04-25T09:31:27.149Z,57.72
2023-04-25T09:34:04.529Z,57.41
2023-04-25T09:36:32.817Z,57.29
2023-04-25T09:39:01.967Z,57.09
2023-04-25T09:41:30.008Z,57.52
2023-04-25T09:44:02.676Z,57.03
2023-04-25T09:46:37.726Z,56.84
2023-04-25T09:49:09.413Z,56.22
2023-04-25T09:51:37.462Z,54.93
2023-04-25T09:54:05.583Z,54.66
2023-04-25T09:56:37.937Z,55.10
2023-04-25T09:59:07.752Z,54.78
2023-04-25T10:01:37.276Z,55.75
2023-04-25T10:04:07.947Z,55.35
2023-04-25T10:06:36.813Z,55.53
2023-04-25T10:09:05.012Z,55.00
2023-04-25T10:11:33.788Z,54.71
2023-04-25T10:14:01.774Z,55.08
2023-04-25T10:16:30.001Z,55.69
2023-04-25T10:18:58.584Z,56.66
2023-04-25T10:21:28.504Z,57.07
2023-04-25T10:23:56.628Z,56.85
2023-04-25T10:26:25.702Z,57.28
2023-04-25T10:29:02.600Z,58.01
2023-04-25T10:31:32.435Z,57.18
2023-04-25T10:34:02.144Z,57.09
2023-04-25T10:36:33.448Z,57.51
2023-04-25T10:39:09.970Z,57.84
2023-04-25T10:42:08.867Z,57.27
2023-04-25T10:44:39.450Z,56.36
2023-04-25T10:47:09.571Z,57.04
2023-04-25T10:49:44.304Z,57.24
2023-04-25T10:52:29.553Z,57.53
2023-04-25T10:54:58.698Z,57.49
2023-04-25T10:57:49.416Z,57.34
2023-04-25T11:00:25.850Z,57.95
2023-04-25T11:03:00.675Z,57.57
2023-04-25T11:08:49.990Z,56.88
2023-04-25T11:11:19.891Z,57.40
2023-04-25T11:13:51.657Z,57.61
2023-04-25T11:14:37.792Z,57.70
2023-04-25T11:16:27.569Z,58.05
2023-04-25T11:18:59.385Z,58.69
2023-04-25T11:21:29.065Z,59.11
2023-04-25T11:23:57.723Z,59.03
2023-04-25T11:26:27.071Z,59.27
2023-04-25T11:29:01.108Z,58.22
2023-04-25T11:31:29.047Z,58.66
2023-04-25T11:34:00.289Z,58.91
2023-04-25T11:36:28.494Z,56.87
2023-04-25T11:38:56.904Z,56.76
2023-04-25T11:41:25.339Z,56.05
2023-04-25T11:43:55.563Z,55.65
2023-04-25T11:46:23.668Z,55.29
2023-04-25T11:48:52.452Z,55.95
2023-04-25T11:51:21.130Z,55.95
2023-04-25T11:53:49.045Z,54.91
2023-04-25T11:56:16.966Z,54.21
2023-04-25T11:59:03.386Z,54.37
2023-04-25T12:01:38.244Z,55.08
2023-04-25T12:04:18.568Z,56.33
2023-04-25T12:06:49.244Z,57.94
2023-04-25T12:09:22.874Z,58.74
2023-04-25T12:11:55.932Z,58.82
2023-04-25T12:14:30.419Z,59.13
2023-04-25T12:17:01.265Z,59.47
2023-04-25T12:19:37.187Z,59.43
2023-04-25T12:22:23.190Z,59.67
2023-04-25T12:24:51.551Z,59.97
2023-04-25T12:27:21.086Z,60.65
2023-04-25T12:29:56.862Z,60.65
2023-04-25T12:32:25.439Z,60.59
2023-04-25T12:34:53.456Z,59.98
2023-04-25T12:37:22.086Z,59.42
2023-04-25T12:39:49.915Z,59.22
2023-04-25T12:42:17.797Z,59.04
2023-04-25T12:44:45.836Z,57.96
2023-04-25T12:47:13.767Z,58.43
2023-04-25T12:49:41.640Z,59.04
2023-04-25T12:52:09.529Z,58.91
2023-04-25T12:54:37.444Z,59.15
2023-04-25T12:57:05.858Z,61.09
2023-04-25T12:59:33.796Z,62.29
2023-04-25T13:02:01.833Z,63.38
2023-04-25T13:04:30.033Z,59.41
2023-04-25T13:06:58.120Z,57.66
2023-04-25T13:09:26.016Z,58.96
2023-04-25T13:11:56.203Z,60.37
2023-04-25T13:14:26.402Z,59.92
2023-04-25T13:16:55.336Z,61.03
2023-04-25T13:19:23.433Z,61.38
2023-04-25T13:21:51.738Z,62.65
2023-04-25T13:24:19.797Z,61.61
2023-04-25T13:26:47.620Z,57.22
2023-04-25T13:29:15.549Z,56.62
2023-04-25T13:31:43.564Z,57.76
2023-04-25T13:34:13.552Z,58.20
2023-04-25T13:36:41.574Z,58.50
2023-04-25T13:39:09.417Z,59.73
2023-04-25T13:41:37.944Z,60.46
2023-04-25T13:44:05.745Z,59.47
2023-04-25T13:46:45.762Z,59.70
2023-04-25T13:49:15.546Z,60.25
2023-04-25T13:51:43.802Z,61.20
2023-04-25T13:54:11.895Z,61.22
2023-04-25T13:56:39.853Z,61.81
2023-04-25T13:59:08.033Z,61.89
2023-04-25T14:01:36.913Z,63.59
2023-04-25T14:04:05.973Z,60.50
2023-04-25T14:06:34.293Z,57.17
2023-04-25T14:09:02.432Z,58.60
2023-04-25T14:11:30.903Z,59.84
2023-04-25T14:13:58.667Z,61.76
2023-04-25T14:16:26.688Z,61.85
2023-04-25T14:18:55.686Z,63.10
2023-04-25T14:21:23.685Z,60.25
2023-04-25T14:23:52.007Z,56.80
2023-04-25T14:26:20.328Z,57.30
2023-04-25T14:28:48.262Z,58.45
2023-04-25T14:31:16.535Z,59.20
2023-04-25T14:33:44.444Z,59.97
2023-04-25T14:36:12.381Z,59.49
2023-04-25T14:38:40.406Z,60.06
2023-04-25T14:41:09.049Z,59.45
2023-04-25T14:43:37.684Z,60.06
2023-04-25T14:46:05.734Z,60.83
2023-04-25T14:48:38.964Z,63.15
2023-04-25T14:51:07.406Z,60.98
2023-04-25T14:53:35.550Z,56.89
2023-04-25T14:56:03.851Z,57.18
2023-04-25T14:58:32.386Z,59.07
2023-04-25T15:01:01.354Z,61.19
2023-04-25T15:03:29.298Z,62.34
2023-04-25T15:05:57.451Z,63.36
2023-04-25T15:08:25.275Z,59.72
2023-04-25T15:10:53.338Z,58.05
2023-04-25T15:13:21.455Z,59.64
2023-04-25T15:15:52.175Z,62.25
2023-04-25T15:18:26.432Z,61.88
2023-04-25T15:20:54.532Z,57.97
2023-04-25T15:23:22.799Z,58.33
2023-04-25T15:25:53.544Z,60.05
2023-04-25T15:28:22.533Z,61.44
2023-04-25T15:30:51.161Z,63.22
2023-04-25T15:33:18.999Z,60.55
2023-04-25T15:35:46.897Z,57.29
2023-04-25T15:38:14.707Z,58.34
2023-04-25T15:40:42.618Z,59.20
2023-04-25T15:43:16.125Z,60.36
2023-04-25T15:45:45.911Z,61.76
2023-04-25T15:48:14.089Z,62.95
2023-04-25T15:50:42.726Z,60.09
2023-04-25T15:53:11.384Z,56.49
2023-04-25T15:55:39.642Z,58.15
2023-04-25T15:58:08.562Z,59.62
2023-04-25T16:00:38.028Z,61.40
2023-04-25T16:03:06.334Z,63.18
2023-04-25T16:05:34.392Z,61.27
2023-04-25T16:08:04.765Z,57.17
2023-04-25T16:10:33.359Z,57.67
2023-04-25T16:13:01.222Z,59.36
2023-04-25T16:15:29.097Z,61.16
2023-04-25T16:17:57.048Z,62.42
2023-04-25T16:20:25.155Z,63.57
2023-04-25T16:22:53.066Z,59.69
2023-04-25T16:25:22.221Z,55.77
2023-04-25T16:27:50.194Z,57.43
2023-04-25T16:30:18.091Z,59.03
2023-04-25T16:32:46.026Z,60.02
2023-04-25T16:35:13.945Z,60.71
2023-04-25T16:37:41.899Z,61.39
2023-04-25T16:40:10.374Z,62.32
2023-04-25T16:42:38.504Z,62.98
2023-04-25T16:45:07.159Z,60.03
2023-04-25T16:47:35.130Z,56.07
2023-04-25T16:50:03.420Z,57.35
2023-04-25T16:52:32.134Z,58.27
2023-04-25T16:55:01.767Z,58.25
2023-04-25T16:57:29.701Z,58.95
2023-04-25T16:59:57.567Z,58.71
2023-04-25T17:02:25.547Z,59.24
2023-04-25T17:04:54.037Z,59.21
2023-04-25T17:07:24.833Z,57.33
2023-04-25T17:09:53.206Z,57.52
2023-04-25T17:12:22.434Z,57.04
2023-04-25T17:14:50.408Z,57.78
2023-04-25T17:17:19.055Z,56.95
2023-04-25T17:19:48.010Z,55.20
2023-04-25T17:22:16.689Z,54.39
2023-04-25T17:24:44.615Z,54.30
2023-04-25T17:27:15.908Z,53.57
2023-04-25T17:29:48.154Z,53.88
2023-04-25T17:32:17.574Z,53.96
2023-04-25T17:34:46.346Z,54.40
2023-04-25T17:37:16.649Z,53.64
2023-04-25T17:39:45.025Z,53.25
2023-04-25T17:42:14.798Z,53.42
2023-04-25T17:44:43.296Z,54.03
2023-04-25T17:47:11.851Z,53.99
2023-04-25T17:49:41.259Z,54.54
2023-04-25T17:52:09.803Z,55.18
2023-04-25T17:54:37.925Z,55.53
2023-04-25T17:57:05.811Z,55.94
2023-04-25T17:59:33.678Z,56.27
2023-04-25T18:02:02.057Z,56.78
2023-04-25T18:04:30.220Z,57.12
2023-04-25T18:06:58.251Z,57.65
2023-04-25T18:09:26.208Z,58.10
2023-04-25T18:11:54.721Z,58.26
2023-04-25T18:14:22.907Z,58.56
2023-04-25T18:16:55.615Z,58.50
2023-04-25T18:19:23.721Z,58.61
2023-04-25T18:21:56.200Z,58.88
2023-04-25T18:24:28.460Z,59.25
2023-04-25T18:27:00.671Z,59.81
2023-04-25T18:29:33.490Z,59.88
2023-04-25T18:32:02.484Z,60.07
2023-04-25T18:34:32.131Z,60.57
2023-04-25T18:37:00.111Z,60.81
2023-04-25T18:39:28.319Z,61.00
2023-04-25T18:42:04.224Z,61.17
2023-04-25T18:44:39.917Z,61.22
2023-04-25T18:47:09.779Z,61.63
2023-04-25T18:49:37.709Z,61.91
2023-04-25T18:52:12.422Z,62.06
2023-04-25T19:01:17.558Z,61.88
2023-04-25T19:03:45.819Z,61.83
2023-04-25T19:06:14.149Z,61.78
2023-04-25T19:08:42.014Z,61.52
2023-04-25T19:11:20.570Z,61.70
2023-04-25T19:13:51.617Z,62.02
2023-04-25T19:16:19.785Z,61.69
2023-04-25T19:18:48.580Z,61.68
2023-04-25T19:21:17.107Z,61.22
2023-04-25T19:23:44.966Z,61.26
2023-04-25T19:26:13.388Z,61.96
2023-04-25T19:28:44.537Z,62.18
2023-04-25T19:31:13.128Z,62.23
2023-04-25T19:33:42.069Z,63.67
2023-04-25T19:36:10.050Z,61.23
2023-04-25T19:38:38.088Z,55.15
2023-04-25T19:41:06.476Z,54.44
2023-04-25T19:43:34.330Z,55.83
2023-04-25T19:46:02.150Z,56.81
2023-04-25T19:48:30.003Z,57.89
2023-04-25T19:50:57.990Z,58.69
2023-04-25T19:53:25.949Z,58.92
2023-04-25T19:55:53.755Z,59.27
2023-04-25T19:58:21.644Z,60.17
2023-04-25T20:00:49.477Z,61.10
2023-04-25T20:03:17.812Z,61.51
2023-04-25T20:05:45.906Z,61.73
2023-04-25T20:08:14.321Z,61.87
2023-04-25T20:10:42.688Z,61.93
2023-04-25T20:13:11.092Z,63.28
2023-04-25T20:15:38.896Z,61.30
2023-04-25T20:18:06.778Z,56.53
2023-04-25T20:20:36.374Z,55.66
2023-04-25T20:23:04.906Z,56.70
2023-04-25T20:25:32.825Z,58.03
2023-04-25T20:28:00.627Z,58.80
2023-04-25T20:30:28.508Z,59.43
2023-04-25T20:32:56.684Z,59.96
2023-04-25T20:35:24.514Z,60.55
2023-04-25T20:37:52.767Z,60.99
2023-04-25T20:40:20.749Z,61.53
2023-04-25T20:42:48.556Z,61.92
2023-04-25T20:45:16.689Z,63.43
2023-04-25T20:47:44.734Z,60.76
2023-04-25T20:50:12.750Z,55.92
2023-04-25T20:52:40.875Z,55.81
2023-04-25T20:55:10.960Z,57.24
2023-04-25T20:57:38.869Z,58.44
2023-04-25T21:00:18.292Z,59.29
2023-04-25T21:02:49.327Z,60.26
2023-04-25T21:05:17.711Z,60.56
2023-04-25T21:07:46.708Z,61.02
2023-04-25T21:10:16.675Z,61.46
2023-04-25T21:12:50.056Z,61.89
2023-04-25T21:15:21.518Z,62.42
2023-04-25T21:17:50.807Z,63.28
2023-04-25T21:20:20.803Z,60.11
2023-04-25T21:22:53.027Z,55.10
2023-04-25T21:25:29.038Z,55.54
2023-04-25T21:27:58.866Z,56.95
2023-04-25T21:30:27.032Z,58.10
2023-04-25T21:32:54.989Z,59.10
2023-04-25T21:35:23.391Z,60.03
2023-04-25T21:37:51.636Z,60.48
2023-04-25T21:40:19.853Z,60.82
2023-04-25T21:42:51.656Z,61.32
2023-04-25T21:45:21.081Z,61.97
2023-04-25T21:47:50.781Z,63.58
2023-04-25T21:50:19.789Z,61.06
2023-04-25T21:52:48.433Z,56.52
2023-04-25T21:55:17.165Z,55.99
2023-04-25T21:57:45.099Z,57.42
2023-04-25T22:00:24.975Z,58.83
2023-04-25T22:02:56.781Z,59.58
2023-04-25T22:05:26.635Z,60.41
2023-04-25T22:07:59.324Z,61.01
2023-04-25T22:10:27.201Z,61.20
2023-04-25T22:12:56.084Z,61.84
2023-04-25T22:15:24.159Z,62.32
2023-04-25T22:17:55.439Z,63.33
2023-04-25T22:20:26.515Z,59.75
2023-04-25T22:22:55.916Z,55.28
2023-04-25T22:25:24.005Z,56.28
2023-04-25T22:27:52.048Z,58.03
2023-04-25T22:30:19.868Z,59.21
2023-04-25T22:32:47.905Z,60.12
2023-04-25T22:35:15.792Z,60.57
2023-04-25T22:37:43.637Z,61.19
2023-04-25T22:40:12.637Z,61.58
2023-04-25T22:42:42.317Z,62.03
2023-04-25T22:45:11.262Z,62.36
2023-04-25T22:47:40.177Z,63.35
2023-04-25T22:50:13.620Z,60.14
2023-04-25T22:52:42.592Z,55.21
2023-04-25T22:55:12.562Z,55.71
2023-04-25T22:57:41.475Z,57.32
2023-04-25T23:00:19.217Z,58.72
2023-04-25T23:02:48.127Z,59.76
2023-04-25T23:05:16.380Z,60.36
2023-04-25T23:07:48.479Z,60.91
2023-04-25T23:10:16.743Z,61.70
2023-04-25T23:12:44.998Z,62.36
2023-04-25T23:15:13.666Z,63.79
2023-04-25T23:17:42.324Z,60.81
2023-04-25T23:20:11.666Z,56.13
2023-04-25T23:22:39.575Z,56.31
2023-04-25T23:25:08.937Z,57.82
2023-04-25T23:27:37.408Z,59.06
2023-04-25T23:30:06.495Z,60.14
2023-04-25T23:32:34.680Z,61.21
2023-04-25T23:35:05.139Z,61.81
2023-04-25T23:37:37.333Z,62.68
2023-04-25T23:40:10.166Z,62.58
2023-04-25T23:42:38.753Z,57.69
2023-04-25T23:45:07.714Z,56.73
2023-04-25T23:47:36.351Z,58.30
2023-04-25T23:50:05.185Z,59.64
2023-04-25T23:52:33.001Z,60.62
2023-04-25T23:55:01.162Z,61.23
2023-04-25T23:57:28.943Z,61.62
2023-04-25T23:59:57.365Z,62.54
